sensor_id;sensor_type;location;lat;lon;timestamp;temperature;humidity
9861;DHT22;4969;52.304;4.968;2023-04-25T00:01:56;8.03;74.59
9861;DHT22;4969;52.304;4.968;2023-04-25T00:04:22;8.40;75.44
9861;DHT22;4969;52.304;4.968;2023-04-25T00:06:52;8.75;79.35
9861;DHT22;4969;52.304;4.968;2023-04-25T00:09:18;8.22;74.62
9861;DHT22;4969;52.304;4.968;2023-04-25T00:11:45;8.45;77.60
9861;DHT22;4969;52.304;4.968;2023-04-25T00:14:11;8.52;73.55
9861;DHT22;4969;52.304;4.968;2023-04-25T00:16:38;8.82;75.19
9861;DHT22;4969;52.304;4.968;2023-04-25T00:19:06;8.36;76.38
9861;DHT22;4969;52.304;4.968;2023-04-25T00:21:33;7.94;73.76
9861;DHT22;4969;52.304;4.968;2023-04-25T00:24:02;8.67;82.96
9861;DHT22;4969;52.304;4.968;2023-04-25T00:26:28;8.48;75.15
9861;DHT22;4969;52.304;4.968;2023-04-25T00:28:55;8.40;75.04
9861;DHT22;4969;52.304;4.968;2023-04-25T00:31:22;8.36;73.53
9861;DHT22;4969;52.304;4.968;2023-04-25T00:33:48;8.33;73.06
9861;DHT22;4969;52.304;4.968;2023-04-25T00:36:15;8.05;75.88
9861;DHT22;4969;52.304;4.968;2023-04-25T00:38:42;8.50;77.33
9861;DHT22;4969;52.304;4.968;2023-04-25T00:41:10;8.43;73.17
9861;DHT22;4969;52.304;4.968;2023-04-25T00:43:37;8.71;74.54
9861;DHT22;4969;52.304;4.968;2023-04-25T00:46:03;8.24;75.36
9861;DHT22;4969;52.304;4.968;2023-04-25T00:48:30;8.07;72.61
9861;DHT22;4969;52.304;4.968;2023-04-25T00:50:58;8.58;75.32
9861;DHT22;4969;52.304;4.968;2023-04-25T00:53:27;8.81;75.56
9861;DHT22;4969;52.304;4.968;2023-04-25T00:55:55;8.58;70.02
9861;DHT22;4969;52.304;4.968;2023-04-25T00:58:23;8.60;73.74
9861;DHT22;4969;52.304;4.968;2023-04-25T01:00:51;8.06;72.40
9861;DHT22;4969;52.304;4.968;2023-04-25T01:03:18;8.06;73.77
9861;DHT22;4969;52.304;4.968;2023-04-25T01:05:46;8.29;72.57
9861;DHT22;4969;52.304;4.968;2023-04-25T01:08:13;8.24;73.68
9861;DHT22;4969;52.304;4.968;2023-04-25T01:10:40;8.02;71.17
9861;DHT22;4969;52.304;4.968;2023-04-25T01:13:07;7.86;73.35
9861;DHT22;4969;52.304;4.968;2023-04-25T01:15:35;8.09;75.05
9861;DHT22;4969;52.304;4.968;2023-04-25T01:18:02;8.01;72.18
9861;DHT22;4969;52.304;4.968;2023-04-25T01:20:30;7.75;72.23
9861;DHT22;4969;52.304;4.968;2023-04-25T01:22:59;7.52;73.64
9861;DHT22;4969;52.304;4.968;2023-04-25T01:25:27;7.72;72.77
9861;DHT22;4969;52.304;4.968;2023-04-25T01:27:54;7.95;74.16
9861;DHT22;4969;52.304;4.968;2023-04-25T01:30:20;8.16;74.28
9861;DHT22;4969;52.304;4.968;2023-04-25T01:32:48;7.77;71.40
9861;DHT22;4969;52.304;4.968;2023-04-25T01:35:15;7.72;72.78
9861;DHT22;4969;52.304;4.968;2023-04-25T01:37:42;8.41;76.98
9861;DHT22;4969;52.304;4.968;2023-04-25T01:40:11;8.55;72.25
9861;DHT22;4969;52.304;4.968;2023-04-25T01:42:41;8.32;71.44
9861;DHT22;4969;52.304;4.968;2023-04-25T01:45:09;8.27;77.01
9861;DHT22;4969;52.304;4.968;2023-04-25T01:47:37;8.37;72.29
9861;DHT22;4969;52.304;4.968;2023-04-25T01:50:06;8.03;70.34
9861;DHT22;4969;52.304;4.968;2023-04-25T01:52:33;8.16;70.41
9861;DHT22;4969;52.304;4.968;2023-04-25T01:55:01;8.67;69.88
9861;DHT22;4969;52.304;4.968;2023-04-25T01:57:29;8.16;71.66
9861;DHT22;4969;52.304;4.968;2023-04-25T01:59:59;8.06;72.08
9861;DHT22;4969;52.304;4.968;2023-04-25T02:02:25;8.13;72.17
9861;DHT22;4969;52.304;4.968;2023-04-25T02:04:52;8.50;74.41
9861;DHT22;4969;52.304;4.968;2023-04-25T02:07:19;8.57;71.14
9861;DHT22;4969;52.304;4.968;2023-04-25T02:09:46;8.81;71.03
9861;DHT22;4969;52.304;4.968;2023-04-25T02:12:12;8.52;71.58
9861;DHT22;4969;52.304;4.968;2023-04-25T02:14:40;8.30;70.68
9861;DHT22;4969;52.304;4.968;2023-04-25T02:17:07;7.95;71.16
9861;DHT22;4969;52.304;4.968;2023-04-25T02:19:33;7.94;72.00
9861;DHT22;4969;52.304;4.968;2023-04-25T02:22:00;8.10;71.10
9861;DHT22;4969;52.304;4.968;2023-04-25T02:24:26;8.26;72.93
9861;DHT22;4969;52.304;4.968;2023-04-25T02:26:53;8.44;72.39
9861;DHT22;4969;52.304;4.968;2023-04-25T02:29:21;8.52;72.00
9861;DHT22;4969;52.304;4.968;2023-04-25T02:31:48;8.32;69.59
9861;DHT22;4969;52.304;4.968;2023-04-25T02:34:15;8.06;70.86
9861;DHT22;4969;52.304;4.968;2023-04-25T02:36:42;8.02;71.37
9861;DHT22;4969;52.304;4.968;2023-04-25T02:39:08;8.03;71.29
9861;DHT22;4969;52.304;4.968;2023-04-25T02:41:35;8.12;72.48
9861;DHT22;4969;52.304;4.968;2023-04-25T02:44:02;8.01;70.59
9861;DHT22;4969;52.304;4.968;2023-04-25T02:46:28;7.74;71.53
9861;DHT22;4969;52.304;4.968;2023-04-25T02:48:56;7.88;74.16
9861;DHT22;4969;52.304;4.968;2023-04-25T02:51:23;7.47;73.01
9861;DHT22;4969;52.304;4.968;2023-04-25T02:53:50;7.61;72.39
9861;DHT22;4969;52.304;4.968;2023-04-25T02:56:16;7.51;73.93
9861;DHT22;4969;52.304;4.968;2023-04-25T02:58:43;7.85;72.40
9861;DHT22;4969;52.304;4.968;2023-04-25T03:01:10;7.24;71.89
9861;DHT22;4969;52.304;4.968;2023-04-25T03:03:36;7.61;69.72
9861;DHT22;4969;52.304;4.968;2023-04-25T03:06:05;7.60;67.92
9861;DHT22;4969;52.304;4.968;2023-04-25T03:08:31;7.19;68.81
9861;DHT22;4969;52.304;4.968;2023-04-25T03:10:59;7.43;69.86
9861;DHT22;4969;52.304;4.968;2023-04-25T03:13:26;7.55;69.54
9861;DHT22;4969;52.304;4.968;2023-04-25T03:15:55;7.52;68.25
9861;DHT22;4969;52.304;4.968;2023-04-25T03:18:21;7.40;69.07
9861;DHT22;4969;52.304;4.968;2023-04-25T03:20:48;7.85;69.10
9861;DHT22;4969;52.304;4.968;2023-04-25T03:23:16;7.82;66.31
9861;DHT22;4969;52.304;4.968;2023-04-25T03:25:42;7.71;68.47
9861;DHT22;4969;52.304;4.968;2023-04-25T03:28:09;7.85;68.11
9861;DHT22;4969;52.304;4.968;2023-04-25T03:30:35;7.89;65.72
9861;DHT22;4969;52.304;4.968;2023-04-25T03:33:02;8.12;65.75
9861;DHT22;4969;52.304;4.968;2023-04-25T03:35:29;8.27;66.99
9861;DHT22;4969;52.304;4.968;2023-04-25T03:37:55;7.57;69.62
9861;DHT22;4969;52.304;4.968;2023-04-25T03:40:23;7.67;69.44
9861;DHT22;4969;52.304;4.968;2023-04-25T03:42:50;7.33;70.46
9861;DHT22;4969;52.304;4.968;2023-04-25T03:45:16;7.94;72.13
9861;DHT22;4969;52.304;4.968;2023-04-25T03:47:43;7.36;69.87
9861;DHT22;4969;52.304;4.968;2023-04-25T03:50:10;7.23;70.42
9861;DHT22;4969;52.304;4.968;2023-04-25T03:52:36;6.99;70.27
9861;DHT22;4969;52.304;4.968;2023-04-25T03:55:04;7.69;77.44
9861;DHT22;4969;52.304;4.968;2023-04-25T03:57:32;6.83;71.17
9861;DHT22;4969;52.304;4.968;2023-04-25T03:59:58;7.30;70.97
9861;DHT22;4969;52.304;4.968;2023-04-25T04:02:25;7.18;71.01
9861;DHT22;4969;52.304;4.968;2023-04-25T04:04:52;7.15;70.69
9861;DHT22;4969;52.304;4.968;2023-04-25T04:07:18;7.20;74.64
9861;DHT22;4969;52.304;4.968;2023-04-25T04:09:45;7.36;69.55
9861;DHT22;4969;52.304;4.968;2023-04-25T04:12:11;8.24;74.36
9861;DHT22;4969;52.304;4.968;2023-04-25T04:14:39;7.74;68.95
9861;DHT22;4969;52.304;4.968;2023-04-25T04:17:06;7.47;70.08
9861;DHT22;4969;52.304;4.968;2023-04-25T04:19:33;7.52;70.67
9861;DHT22;4969;52.304;4.968;2023-04-25T04:21:59;7.43;69.95
9861;DHT22;4969;52.304;4.968;2023-04-25T04:24:26;7.46;71.04
9861;DHT22;4969;52.304;4.968;2023-04-25T04:26:52;7.15;70.76
9861;DHT22;4969;52.304;4.968;2023-04-25T04:29:19;7.05;71.78
9861;DHT22;4969;52.304;4.968;2023-04-25T04:31:48;7.12;71.93
9861;DHT22;4969;52.304;4.968;2023-04-25T04:34:15;7.69;78.31
9861;DHT22;4969;52.304;4.968;2023-04-25T04:36:44;6.94;72.38
9861;DHT22;4969;52.304;4.968;2023-04-25T04:39:11;6.50;73.96
9861;DHT22;4969;52.304;4.968;2023-04-25T04:41:38;6.40;74.16
9861;DHT22;4969;52.304;4.968;2023-04-25T04:44:05;6.53;74.42
9861;DHT22;4969;52.304;4.968;2023-04-25T04:46:34;6.67;73.62
9861;DHT22;4969;52.304;4.968;2023-04-25T04:49:04;7.23;74.00
9861;DHT22;4969;52.304;4.968;2023-04-25T04:51:31;7.23;71.80
9861;DHT22;4969;52.304;4.968;2023-04-25T04:53:58;7.64;74.30
9861;DHT22;4969;52.304;4.968;2023-04-25T04:56:27;7.60;71.63
9861;DHT22;4969;52.304;4.968;2023-04-25T04:58:54;7.65;71.85
9861;DHT22;4969;52.304;4.968;2023-04-25T05:01:21;7.48;71.98
9861;DHT22;4969;52.304;4.968;2023-04-25T05:03:48;7.50;72.93
9861;DHT22;4969;52.304;4.968;2023-04-25T05:06:16;7.47;72.98
9861;DHT22;4969;52.304;4.968;2023-04-25T05:08:42;7.62;72.87
9861;DHT22;4969;52.304;4.968;2023-04-25T05:11:09;7.72;73.79
9861;DHT22;4969;52.304;4.968;2023-04-25T05:13:36;7.82;73.61
9861;DHT22;4969;52.304;4.968;2023-04-25T05:16:03;7.96;72.86
9861;DHT22;4969;52.304;4.968;2023-04-25T05:18:30;7.91;73.73
9861;DHT22;4969;52.304;4.968;2023-04-25T05:20:56;7.88;72.68
9861;DHT22;4969;52.304;4.968;2023-04-25T05:23:24;7.89;73.06
9861;DHT22;4969;52.304;4.968;2023-04-25T05:25:53;7.98;72.46
9861;DHT22;4969;52.304;4.968;2023-04-25T05:28:19;7.92;72.95
9861;DHT22;4969;52.304;4.968;2023-04-25T05:30:46;7.88;71.45
9861;DHT22;4969;52.304;4.968;2023-04-25T05:33:12;7.71;71.69
9861;DHT22;4969;52.304;4.968;2023-04-25T05:35:39;7.78;72.18
9861;DHT22;4969;52.304;4.968;2023-04-25T05:38:06;7.69;72.48
9861;DHT22;4969;52.304;4.968;2023-04-25T05:40:34;8.17;74.16
9861;DHT22;4969;52.304;4.968;2023-04-25T05:43:01;7.99;70.86
9861;DHT22;4969;52.304;4.968;2023-04-25T05:45:27;8.13;70.95
9861;DHT22;4969;52.304;4.968;2023-04-25T05:47:54;8.24;70.36
9861;DHT22;4969;52.304;4.968;2023-04-25T05:50:20;8.64;73.30
9861;DHT22;4969;52.304;4.968;2023-04-25T05:52:47;8.52;70.16
9861;DHT22;4969;52.304;4.968;2023-04-25T05:55:14;8.13;70.82
9861;DHT22;4969;52.304;4.968;2023-04-25T05:57:42;7.79;71.59
9861;DHT22;4969;52.304;4.968;2023-04-25T06:00:12;7.64;71.91
9861;DHT22;4969;52.304;4.968;2023-04-25T06:02:40;7.61;71.03
9861;DHT22;4969;52.304;4.968;2023-04-25T06:05:07;7.89;71.11
9861;DHT22;4969;52.304;4.968;2023-04-25T06:07:34;8.26;68.49
9861;DHT22;4969;52.304;4.968;2023-04-25T06:10:01;7.95;69.45
9861;DHT22;4969;52.304;4.968;2023-04-25T06:12:29;8.48;77.39
9861;DHT22;4969;52.304;4.968;2023-04-25T06:14:56;8.62;67.89
9861;DHT22;4969;52.304;4.968;2023-04-25T06:17:23;8.33;67.89
9861;DHT22;4969;52.304;4.968;2023-04-25T06:19:49;8.79;68.40
9861;DHT22;4969;52.304;4.968;2023-04-25T06:22:16;8.92;66.73
9861;DHT22;4969;52.304;4.968;2023-04-25T06:24:43;8.58;73.18
9861;DHT22;4969;52.304;4.968;2023-04-25T06:27:11;8.89;69.52
9861;DHT22;4969;52.304;4.968;2023-04-25T06:29:37;8.71;68.63
9861;DHT22;4969;52.304;4.968;2023-04-25T06:32:05;9.65;71.35
9861;DHT22;4969;52.304;4.968;2023-04-25T06:34:32;9.30;65.38
9861;DHT22;4969;52.304;4.968;2023-04-25T06:36:59;8.91;66.86
9861;DHT22;4969;52.304;4.968;2023-04-25T06:39:25;8.82;75.17
9861;DHT22;4969;52.304;4.968;2023-04-25T06:41:52;8.67;66.95
9861;DHT22;4969;52.304;4.968;2023-04-25T06:44:18;9.10;66.84
9861;DHT22;4969;52.304;4.968;2023-04-25T06:46:46;9.13;68.59
9861;DHT22;4969;52.304;4.968;2023-04-25T06:49:14;8.44;62.19
9861;DHT22;4969;52.304;4.968;2023-04-25T06:51:40;8.23;63.08
9861;DHT22;4969;52.304;4.968;2023-04-25T06:54:07;8.07;61.44
9861;DHT22;4969;52.304;4.968;2023-04-25T06:56:34;8.91;68.48
9861;DHT22;4969;52.304;4.968;2023-04-25T06:59:00;8.75;61.54
9861;DHT22;4969;52.304;4.968;2023-04-25T07:01:27;9.22;69.48
9861;DHT22;4969;52.304;4.968;2023-04-25T07:03:54;8.51;62.91
9861;DHT22;4969;52.304;4.968;2023-04-25T07:06:21;8.89;66.53
9861;DHT22;4969;52.304;4.968;2023-04-25T07:08:48;8.47;63.52
9861;DHT22;4969;52.304;4.968;2023-04-25T07:11:15;8.79;69.05
9861;DHT22;4969;52.304;4.968;2023-04-25T07:13:41;8.76;62.00
9861;DHT22;4969;52.304;4.968;2023-04-25T07:16:08;8.36;61.94
9861;DHT22;4969;52.304;4.968;2023-04-25T07:18:34;8.12;63.19
9861;DHT22;4969;52.304;4.968;2023-04-25T07:21:01;8.41;63.02
9861;DHT22;4969;52.304;4.968;2023-04-25T07:23:29;8.41;63.93
9861;DHT22;4969;52.304;4.968;2023-04-25T07:25:55;8.50;63.05
9861;DHT22;4969;52.304;4.968;2023-04-25T07:28:22;9.03;63.99
9861;DHT22;4969;52.304;4.968;2023-04-25T07:30:48;9.15;62.84
9861;DHT22;4969;52.304;4.968;2023-04-25T07:33:15;10.09;60.83
9861;DHT22;4969;52.304;4.968;2023-04-25T07:35:41;9.41;59.48
9861;DHT22;4969;52.304;4.968;2023-04-25T07:38:08;8.93;59.84
9861;DHT22;4969;52.304;4.968;2023-04-25T07:40:36;8.67;61.80
9861;DHT22;4969;52.304;4.968;2023-04-25T07:43:03;9.40;62.00
9861;DHT22;4969;52.304;4.968;2023-04-25T07:45:30;9.43;59.50
9861;DHT22;4969;52.304;4.968;2023-04-25T07:47:56;9.22;62.35
9861;DHT22;4969;52.304;4.968;2023-04-25T07:50:23;8.87;58.73
9861;DHT22;4969;52.304;4.968;2023-04-25T07:52:49;8.91;65.34
9861;DHT22;4969;52.304;4.968;2023-04-25T07:55:16;9.16;60.89
9861;DHT22;4969;52.304;4.968;2023-04-25T07:57:44;8.73;62.62
9861;DHT22;4969;52.304;4.968;2023-04-25T08:00:12;8.54;63.44
9861;DHT22;4969;52.304;4.968;2023-04-25T08:02:40;7.82;61.46
9861;DHT22;4969;52.304;4.968;2023-04-25T08:05:07;7.44;63.43
9861;DHT22;4969;52.304;4.968;2023-04-25T08:07:37;7.43;62.66
9861;DHT22;4969;52.304;4.968;2023-04-25T08:10:04;7.43;63.51
9861;DHT22;4969;52.304;4.968;2023-04-25T08:12:31;7.47;65.25
9861;DHT22;4969;52.304;4.968;2023-04-25T08:14:59;7.82;66.95
9861;DHT22;4969;52.304;4.968;2023-04-25T08:17:26;7.92;65.81
9861;DHT22;4969;52.304;4.968;2023-04-25T08:19:53;8.07;64.02
9861;DHT22;4969;52.304;4.968;2023-04-25T08:22:20;8.37;64.54
9861;DHT22;4969;52.304;4.968;2023-04-25T08:24:47;8.40;63.16
9861;DHT22;4969;52.304;4.968;2023-04-25T08:27:13;8.43;64.64
9861;DHT22;4969;52.304;4.968;2023-04-25T08:29:41;9.23;62.16
9861;DHT22;4969;52.304;4.968;2023-04-25T08:32:09;9.73;59.48
9861;DHT22;4969;52.304;4.968;2023-04-25T08:34:35;9.24;58.95
9861;DHT22;4969;52.304;4.968;2023-04-25T08:37:04;9.27;58.40
9861;DHT22;4969;52.304;4.968;2023-04-25T08:39:31;9.68;58.48
9861;DHT22;4969;52.304;4.968;2023-04-25T08:41:57;9.30;58.00
9861;DHT22;4969;52.304;4.968;2023-04-25T08:44:24;9.36;56.01
9861;DHT22;4969;52.304;4.968;2023-04-25T08:46:52;9.66;60.56
9861;DHT22;4969;52.304;4.968;2023-04-25T08:49:20;9.31;52.73
9861;DHT22;4969;52.304;4.968;2023-04-25T08:51:47;9.33;55.00
9861;DHT22;4969;52.304;4.968;2023-04-25T08:54:15;9.34;54.47
9861;DHT22;4969;52.304;4.968;2023-04-25T08:56:44;9.48;59.71
9861;DHT22;4969;52.304;4.968;2023-04-25T08:59:11;9.28;60.24
9861;DHT22;4969;52.304;4.968;2023-04-25T09:01:38;9.40;66.91
9861;DHT22;4969;52.304;4.968;2023-04-25T09:04:05;9.43;60.83
9861;DHT22;4969;52.304;4.968;2023-04-25T09:06:33;9.23;59.96
9861;DHT22;4969;52.304;4.968;2023-04-25T09:09:02;9.22;59.41
9861;DHT22;4969;52.304;4.968;2023-04-25T09:11:29;9.22;59.26
9861;DHT22;4969;52.304;4.968;2023-04-25T09:14:10;9.48;59.44
9861;DHT22;4969;52.304;4.968;2023-04-25T09:16:57;9.77;58.58
9861;DHT22;4969;52.304;4.968;2023-04-25T09:19:25;10.16;64.58
9861;DHT22;4969;52.304;4.968;2023-04-25T09:21:55;9.58;58.54
9861;DHT22;4969;52.304;4.968;2023-04-25T09:24:30;9.44;57.74
9861;DHT22;4969;52.304;4.968;2023-04-25T09:26:57;9.36;59.44
9861;DHT22;4969;52.304;4.968;2023-04-25T09:29:29;9.02;51.22
9861;DHT22;4969;52.304;4.968;2023-04-25T09:32:10;9.50;52.84
9861;DHT22;4969;52.304;4.968;2023-04-25T09:34:39;9.82;60.72
9861;DHT22;4969;52.304;4.968;2023-04-25T09:37:08;10.16;56.39
9861;DHT22;4969;52.304;4.968;2023-04-25T09:39:35;9.69;55.97
9861;DHT22;4969;52.304;4.968;2023-04-25T09:42:03;9.65;52.90
9861;DHT22;4969;52.304;4.968;2023-04-25T09:44:29;9.86;54.39
9861;DHT22;4969;52.304;4.968;2023-04-25T09:46:56;9.50;52.31
9861;DHT22;4969;52.304;4.968;2023-04-25T09:49:25;9.37;52.41
9861;DHT22;4969;52.304;4.968;2023-04-25T09:51:55;9.93;52.44
9861;DHT22;4969;52.304;4.968;2023-04-25T09:54:24;9.69;51.50
9861;DHT22;4969;52.304;4.968;2023-04-25T09:56:52;9.78;49.97
9861;DHT22;4969;52.304;4.968;2023-04-25T09:59:20;9.95;51.43
9861;DHT22;4969;52.304;4.968;2023-04-25T10:01:48;9.85;55.14
9861;DHT22;4969;52.304;4.968;2023-04-25T10:04:19;9.86;54.44
9861;DHT22;4969;52.304;4.968;2023-04-25T10:06:48;10.49;53.30
9861;DHT22;4969;52.304;4.968;2023-04-25T10:09:16;10.26;50.15
9861;DHT22;4969;52.304;4.968;2023-04-25T10:11:45;10.19;54.37
9861;DHT22;4969;52.304;4.968;2023-04-25T10:14:13;10.16;51.88
9861;DHT22;4969;52.304;4.968;2023-04-25T10:16:41;9.95;55.20
9861;DHT22;4969;52.304;4.968;2023-04-25T10:19:09;10.13;53.44
9861;DHT22;4969;52.304;4.968;2023-04-25T10:21:37;9.61;56.31
9861;DHT22;4969;52.304;4.968;2023-04-25T10:24:06;9.31;64.82
9861;DHT22;4969;52.304;4.968;2023-04-25T10:26:33;9.16;60.92
9861;DHT22;4969;52.304;4.968;2023-04-25T10:29:02;8.93;63.16
9861;DHT22;4969;52.304;4.968;2023-04-25T10:31:30;9.20;64.19
9861;DHT22;4969;52.304;4.968;2023-04-25T10:33:57;8.99;61.81
9861;DHT22;4969;52.304;4.968;2023-04-25T10:36:24;9.34;69.39
9861;DHT22;4969;52.304;4.968;2023-04-25T10:38:52;8.79;63.90
9861;DHT22;4969;52.304;4.968;2023-04-25T10:41:20;9.09;61.76
9861;DHT22;4969;52.304;4.968;2023-04-25T10:43:48;9.43;65.68
9861;DHT22;4969;52.304;4.968;2023-04-25T10:46:18;9.43;62.72
9861;DHT22;4969;52.304;4.968;2023-04-25T10:48:47;9.15;61.44
9861;DHT22;4969;52.304;4.968;2023-04-25T10:51:19;9.15;58.84
9861;DHT22;4969;52.304;4.968;2023-04-25T10:53:47;9.12;58.79
9861;DHT22;4969;52.304;4.968;2023-04-25T10:56:24;9.33;58.87
9861;DHT22;4969;52.304;4.968;2023-04-25T10:58:51;10.12;60.63
9861;DHT22;4969;52.304;4.968;2023-04-25T11:01:21;9.85;59.31
9861;DHT22;4969;52.304;4.968;2023-04-25T11:03:57;10.74;60.52
9861;DHT22;4969;52.304;4.968;2023-04-25T11:06:37;10.91;56.75
9861;DHT22;4969;52.304;4.968;2023-04-25T11:09:10;9.72;61.16
9861;DHT22;4969;52.304;4.968;2023-04-25T11:11:38;9.15;70.17
9861;DHT22;4969;52.304;4.968;2023-04-25T11:14:05;9.52;66.63
9861;DHT22;4969;52.304;4.968;2023-04-25T11:16:33;8.82;65.75
9861;DHT22;4969;52.304;4.968;2023-04-25T11:19:01;8.07;72.38
9861;DHT22;4969;52.304;4.968;2023-04-25T11:21:28;8.84;72.13
9861;DHT22;4969;52.304;4.968;2023-04-25T11:23:57;9.98;78.55
9861;DHT22;4969;52.304;4.968;2023-04-25T11:26:24;8.81;64.49
9861;DHT22;4969;52.304;4.968;2023-04-25T11:28:51;9.10;67.69
9861;DHT22;4969;52.304;4.968;2023-04-25T11:31:20;8.78;66.17
9861;DHT22;4969;52.304;4.968;2023-04-25T11:33:48;8.81;66.70
9861;DHT22;4969;52.304;4.968;2023-04-25T11:36:14;9.44;67.87
9861;DHT22;4969;52.304;4.968;2023-04-25T11:38:41;8.79;61.70
9861;DHT22;4969;52.304;4.968;2023-04-25T11:41:07;9.81;71.40
9861;DHT22;4969;52.304;4.968;2023-04-25T11:43:34;9.13;59.64
9861;DHT22;4969;52.304;4.968;2023-04-25T11:46:01;9.44;61.54
9861;DHT22;4969;52.304;4.968;2023-04-25T11:48:27;9.71;60.41
9861;DHT22;4969;52.304;4.968;2023-04-25T11:50:56;9.58;59.39
9861;DHT22;4969;52.304;4.968;2023-04-25T11:53:23;10.20;54.86
9861;DHT22;4969;52.304;4.968;2023-04-25T11:55:50;9.77;58.62
9861;DHT22;4969;52.304;4.968;2023-04-25T11:58:16;10.38;56.82
9861;DHT22;4969;52.304;4.968;2023-04-25T12:00:44;10.52;53.82
9861;DHT22;4969;52.304;4.968;2023-04-25T12:03:11;10.33;56.04
9861;DHT22;4969;52.304;4.968;2023-04-25T12:05:37;10.38;61.93
9861;DHT22;4969;52.304;4.968;2023-04-25T12:08:12;9.98;56.27
9861;DHT22;4969;52.304;4.968;2023-04-25T12:10:41;9.98;57.87
9861;DHT22;4969;52.304;4.968;2023-04-25T12:13:19;9.65;54.73
9861;DHT22;4969;52.304;4.968;2023-04-25T12:15:46;10.42;56.08
9861;DHT22;4969;52.304;4.968;2023-04-25T12:18:12;10.57;54.38
9861;DHT22;4969;52.304;4.968;2023-04-25T12:20:39;10.55;54.67
9861;DHT22;4969;52.304;4.968;2023-04-25T12:23:06;10.16;51.53
9861;DHT22;4969;52.304;4.968;2023-04-25T12:25:36;10.67;56.57
9861;DHT22;4969;52.304;4.968;2023-04-25T12:28:11;10.52;48.13
9861;DHT22;4969;52.304;4.968;2023-04-25T12:30:52;10.68;48.57
9861;DHT22;4969;52.304;4.968;2023-04-25T12:33:19;10.24;47.77
9861;DHT22;4969;52.304;4.968;2023-04-25T12:35:45;10.20;50.91
9861;DHT22;4969;52.304;4.968;2023-04-25T12:38:20;10.81;59.90
9861;DHT22;4969;52.304;4.968;2023-04-25T12:40:48;10.67;48.40
9861;DHT22;4969;52.304;4.968;2023-04-25T12:43:15;10.82;55.58
9861;DHT22;4969;52.304;4.968;2023-04-25T12:45:41;10.54;49.37
9861;DHT22;4969;52.304;4.968;2023-04-25T12:48:08;10.65;49.09
9861;DHT22;4969;52.304;4.968;2023-04-25T12:50:35;10.58;54.25
9861;DHT22;4969;52.304;4.968;2023-04-25T12:53:01;10.24;48.18
9861;DHT22;4969;52.304;4.968;2023-04-25T12:55:28;10.31;50.40
9861;DHT22;4969;52.304;4.968;2023-04-25T12:57:56;10.68;50.30
9861;DHT22;4969;52.304;4.968;2023-04-25T13:00:23;11.03;51.41
9861;DHT22;4969;52.304;4.968;2023-04-25T13:02:49;10.91;53.07
9861;DHT22;4969;52.304;4.968;2023-04-25T13:05:16;10.86;50.84
9861;DHT22;4969;52.304;4.968;2023-04-25T13:07:43;11.37;50.32
9861;DHT22;4969;52.304;4.968;2023-04-25T13:10:10;10.99;52.35
9861;DHT22;4969;52.304;4.968;2023-04-25T13:12:37;11.72;51.45
9861;DHT22;4969;52.304;4.968;2023-04-25T13:15:06;10.65;52.29
9861;DHT22;4969;52.304;4.968;2023-04-25T13:17:34;10.74;53.02
9861;DHT22;4969;52.304;4.968;2023-04-25T13:20:01;11.03;61.77
9861;DHT22;4969;52.304;4.968;2023-04-25T13:22:29;11.00;60.93
9861;DHT22;4969;52.304;4.968;2023-04-25T13:24:55;10.55;53.08
9861;DHT22;4969;52.304;4.968;2023-04-25T13:27:22;11.10;60.34
9861;DHT22;4969;52.304;4.968;2023-04-25T13:29:48;11.44;50.81
9861;DHT22;4969;52.304;4.968;2023-04-25T13:32:16;11.36;53.25
9861;DHT22;4969;52.304;4.968;2023-04-25T13:34:43;10.37;49.51
9861;DHT22;4969;52.304;4.968;2023-04-25T13:37:10;10.63;52.88
9861;DHT22;4969;52.304;4.968;2023-04-25T13:39:36;10.78;50.99
9861;DHT22;4969;52.304;4.968;2023-04-25T13:42:03;10.45;51.64
9861;DHT22;4969;52.304;4.968;2023-04-25T13:44:30;10.79;51.21
9861;DHT22;4969;52.304;4.968;2023-04-25T13:46:56;10.75;50.36
9861;DHT22;4969;52.304;4.968;2023-04-25T13:49:24;10.88;51.01
9861;DHT22;4969;52.304;4.968;2023-04-25T13:51:51;10.26;49.13
9861;DHT22;4969;52.304;4.968;2023-04-25T13:54:17;10.42;55.73
9861;DHT22;4969;52.304;4.968;2023-04-25T13:56:44;10.74;48.79
9861;DHT22;4969;52.304;4.968;2023-04-25T13:59:10;11.36;55.27
9861;DHT22;4969;52.304;4.968;2023-04-25T14:01:37;10.61;47.96
9861;DHT22;4969;52.304;4.968;2023-04-25T14:04:04;10.95;45.86
9861;DHT22;4969;52.304;4.968;2023-04-25T14:06:32;11.20;51.93
9861;DHT22;4969;52.304;4.968;2023-04-25T14:08:59;11.00;48.54
9861;DHT22;4969;52.304;4.968;2023-04-25T14:11:26;10.58;47.08
9861;DHT22;4969;52.304;4.968;2023-04-25T14:13:53;10.33;50.14
9861;DHT22;4969;52.304;4.968;2023-04-25T14:16:20;10.64;52.33
9861;DHT22;4969;52.304;4.968;2023-04-25T14:18:48;10.79;48.93
9861;DHT22;4969;52.304;4.968;2023-04-25T14:21:14;10.91;46.16
9861;DHT22;4969;52.304;4.968;2023-04-25T14:23:42;10.79;47.59
9861;DHT22;4969;52.304;4.968;2023-04-25T14:26:09;10.85;54.70
9861;DHT22;4969;52.304;4.968;2023-04-25T14:28:37;10.23;63.12
9861;DHT22;4969;52.304;4.968;2023-04-25T14:31:04;9.99;57.60
9861;DHT22;4969;52.304;4.968;2023-04-25T14:33:31;9.31;60.10
9861;DHT22;4969;52.304;4.968;2023-04-25T14:35:57;9.72;59.14
9861;DHT22;4969;52.304;4.968;2023-04-25T14:38:24;10.08;64.60
9861;DHT22;4969;52.304;4.968;2023-04-25T14:40:52;9.54;58.42
9861;DHT22;4969;52.304;4.968;2023-04-25T14:43:19;9.23;58.70
9861;DHT22;4969;52.304;4.968;2023-04-25T14:45:47;8.98;59.70
9861;DHT22;4969;52.304;4.968;2023-04-25T14:48:14;9.57;64.14
9861;DHT22;4969;52.304;4.968;2023-04-25T14:50:41;10.60;59.34
9861;DHT22;4969;52.304;4.968;2023-04-25T14:53:08;10.54;54.91
9861;DHT22;4969;52.304;4.968;2023-04-25T14:55:34;10.36;56.26
9861;DHT22;4969;52.304;4.968;2023-04-25T14:58:02;10.89;58.52
9861;DHT22;4969;52.304;4.968;2023-04-25T15:00:29;12.26;63.50
9861;DHT22;4969;52.304;4.968;2023-04-25T15:02:57;11.03;54.15
9861;DHT22;4969;52.304;4.968;2023-04-25T15:05:24;10.92;55.43
9861;DHT22;4969;52.304;4.968;2023-04-25T15:07:50;10.00;55.30
9861;DHT22;4969;52.304;4.968;2023-04-25T15:10:17;10.48;53.37
9861;DHT22;4969;52.304;4.968;2023-04-25T15:12:45;9.62;54.56
9861;DHT22;4969;52.304;4.968;2023-04-25T15:15:14;9.68;57.91
9861;DHT22;4969;52.304;4.968;2023-04-25T15:17:41;10.00;66.27
9861;DHT22;4969;52.304;4.968;2023-04-25T15:20:09;9.85;57.40
9861;DHT22;4969;52.304;4.968;2023-04-25T15:22:36;10.17;57.18
9861;DHT22;4969;52.304;4.968;2023-04-25T15:25:04;10.34;56.97
9861;DHT22;4969;52.304;4.968;2023-04-25T15:27:31;10.68;60.40
9861;DHT22;4969;52.304;4.968;2023-04-25T15:29:58;10.49;62.68
9861;DHT22;4969;52.304;4.968;2023-04-25T15:32:26;10.37;58.89
9861;DHT22;4969;52.304;4.968;2023-04-25T15:34:53;9.98;53.78
9861;DHT22;4969;52.304;4.968;2023-04-25T15:37:19;9.85;54.97
9861;DHT22;4969;52.304;4.968;2023-04-25T15:39:46;9.72;54.08
9861;DHT22;4969;52.304;4.968;2023-04-25T15:42:12;10.03;57.32
9861;DHT22;4969;52.304;4.968;2023-04-25T15:44:39;9.61;52.64
9861;DHT22;4969;52.304;4.968;2023-04-25T15:47:05;10.16;55.37
9861;DHT22;4969;52.304;4.968;2023-04-25T15:49:33;9.98;53.72
9861;DHT22;4969;52.304;4.968;2023-04-25T15:52:00;10.26;57.23
9861;DHT22;4969;52.304;4.968;2023-04-25T15:54:26;10.28;58.05
9861;DHT22;4969;52.304;4.968;2023-04-25T15:56:53;10.37;57.01
9861;DHT22;4969;52.304;4.968;2023-04-25T15:59:20;10.65;56.69
9861;DHT22;4969;52.304;4.968;2023-04-25T16:01:46;10.51;48.92
9861;DHT22;4969;52.304;4.968;2023-04-25T16:04:13;10.71;63.14
9861;DHT22;4969;52.304;4.968;2023-04-25T16:06:41;9.98;51.17
9861;DHT22;4969;52.304;4.968;2023-04-25T16:09:08;10.09;50.43
9861;DHT22;4969;52.304;4.968;2023-04-25T16:11:34;10.52;60.80
9861;DHT22;4969;52.304;4.968;2023-04-25T16:14:01;10.57;55.03
9861;DHT22;4969;52.304;4.968;2023-04-25T16:16:28;11.44;68.06